sensor_id;sensor_type;location;lat;lon;timestamp;pressure;altitude;pressure_sealevel;temperature;humidity
39265;BME280;42646;51.910;7.724;2022-07-17T00:01:44;102095.19;;;12.82;75.07
39265;BME280;42646;51.910;7.724;2022-07-17T00:04:12;102100.88;;;12.78;75.55
39265;BME280;42646;51.910;7.724;2022-07-17T00:06:40;102106.69;;;12.72;75.98
39265;BME280;42646;51.910;7.724;2022-07-17T00:09:08;102108.72;;;12.68;76.29
39265;BME280;42646;51.910;7.724;2022-07-17T00:11:36;102109.94;;;12.64;76.17
39265;BME280;42646;51.910;7.724;2022-07-17T00:14:03;102113.81;;;12.60;76.44
39265;BME280;42646;51.910;7.724;2022-07-17T00:16:31;102108.72;;;12.57;76.70
39265;BME280;42646;51.910;7.724;2022-07-17T00:19:00;102110.88;;;12.52;76.85
39265;BME280;42646;51.910;7.724;2022-07-17T00:21:28;102109.50;;;12.46;77.56
39265;BME280;42646;51.910;7.724;2022-07-17T00:23:56;102108.28;;;12.39;78.27
39265;BME280;42646;51.910;7.724;2022-07-17T00:26:24;102103.28;;;12.35;78.93
39265;BME280;42646;51.910;7.724;2022-07-17T00:28:52;102099.97;;;12.31;79.27
39265;BME280;42646;51.910;7.724;2022-07-17T00:31:20;102095.94;;;12.25;79.51
39265;BME280;42646;51.910;7.724;2022-07-17T00:33:48;102097.34;;;12.18;80.14
39265;BME280;42646;51.910;7.724;2022-07-17T00:36:17;102095.16;;;12.12;80.25
39265;BME280;42646;51.910;7.724;2022-07-17T00:38:45;102091.00;;;12.08;80.63
39265;BME280;42646;51.910;7.724;2022-07-17T00:41:13;102088.66;;;12.03;80.55
39265;BME280;42646;51.910;7.724;2022-07-17T00:43:41;102100.53;;;11.99;80.71
39265;BME280;42646;51.910;7.724;2022-07-17T00:46:12;102102.56;;;11.96;80.78
39265;BME280;42646;51.910;7.724;2022-07-17T00:48:40;102101.19;;;11.90;80.96
39265;BME280;42646;51.910;7.724;2022-07-17T00:51:08;102092.66;;;11.85;81.70
39265;BME280;42646;51.910;7.724;2022-07-17T00:53:37;102101.88;;;11.81;82.40
39265;BME280;42646;51.910;7.724;2022-07-17T00:56:06;102099.63;;;11.75;82.72
39265;BME280;42646;51.910;7.724;2022-07-17T00:58:35;102096.31;;;11.71;82.88
39265;BME280;42646;51.910;7.724;2022-07-17T01:01:04;102095.78;;;11.66;82.82
39265;BME280;42646;51.910;7.724;2022-07-17T01:03:33;102093.56;;;11.60;83.07
39265;BME280;42646;51.910;7.724;2022-07-17T01:06:01;102097.41;;;11.56;83.48
39265;BME280;42646;51.910;7.724;2022-07-17T01:08:30;102098.47;;;11.54;83.30
39265;BME280;42646;51.910;7.724;2022-07-17T01:10:59;102107.63;;;11.49;83.50
39265;BME280;42646;51.910;7.724;2022-07-17T01:13:27;102097.34;;;11.45;83.31
39265;BME280;42646;51.910;7.724;2022-07-17T01:15:54;102110.75;;;11.43;83.36
39265;BME280;42646;51.910;7.724;2022-07-17T01:18:23;102100.50;;;11.37;84.11
39265;BME280;42646;51.910;7.724;2022-07-17T01:20:51;102112.38;;;11.33;84.41
39265;BME280;42646;51.910;7.724;2022-07-17T01:23:20;102104.81;;;11.27;84.97
39265;BME280;42646;51.910;7.724;2022-07-17T01:25:48;102105.13;;;11.22;85.67
39265;BME280;42646;51.910;7.724;2022-07-17T01:28:15;102105.56;;;11.16;85.64
39265;BME280;42646;51.910;7.724;2022-07-17T01:30:48;102103.09;;;11.13;86.07
39265;BME280;42646;51.910;7.724;2022-07-17T01:33:18;102106.16;;;11.07;86.41
39265;BME280;42646;51.910;7.724;2022-07-17T01:35:46;102102.22;;;11.00;86.98
39265;BME280;42646;51.910;7.724;2022-07-17T01:38:14;102099.16;;;10.93;87.33
39265;BME280;42646;51.910;7.724;2022-07-17T01:40:44;102103.94;;;10.88;86.76
39265;BME280;42646;51.910;7.724;2022-07-17T01:43:12;102104.88;;;10.87;86.17
39265;BME280;42646;51.910;7.724;2022-07-17T01:45:40;102106.81;;;10.85;85.65
39265;BME280;42646;51.910;7.724;2022-07-17T01:48:07;102112.22;;;10.84;86.01
39265;BME280;42646;51.910;7.724;2022-07-17T01:50:35;102112.56;;;10.79;86.58
39265;BME280;42646;51.910;7.724;2022-07-17T01:53:03;102115.53;;;10.75;87.14
39265;BME280;42646;51.910;7.724;2022-07-17T01:55:31;102110.38;;;10.72;87.72
39265;BME280;42646;51.910;7.724;2022-07-17T01:58:00;102107.00;;;10.69;87.85
39265;BME280;42646;51.910;7.724;2022-07-17T02:00:28;102105.47;;;10.65;88.22
39265;BME280;42646;51.910;7.724;2022-07-17T02:02:55;102097.78;;;10.61;88.52
39265;BME280;42646;51.910;7.724;2022-07-17T02:05:23;102101.66;;;10.57;88.81
39265;BME280;42646;51.910;7.724;2022-07-17T02:07:51;102096.50;;;10.54;88.86
39265;BME280;42646;51.910;7.724;2022-07-17T02:10:19;102099.41;;;10.51;89.06
39265;BME280;42646;51.910;7.724;2022-07-17T02:12:47;102096.06;;;10.47;89.30
39265;BME280;42646;51.910;7.724;2022-07-17T02:15:16;102097.22;;;10.43;89.62
39265;BME280;42646;51.910;7.724;2022-07-17T02:17:43;102092.84;;;10.42;89.98
39265;BME280;42646;51.910;7.724;2022-07-17T02:20:12;102100.22;;;10.38;89.94
39265;BME280;42646;51.910;7.724;2022-07-17T02:22:41;102103.06;;;10.35;89.75
39265;BME280;42646;51.910;7.724;2022-07-17T02:25:09;102104.00;;;10.34;89.69
39265;BME280;42646;51.910;7.724;2022-07-17T02:27:37;102099.75;;;10.32;89.79
39265;BME280;42646;51.910;7.724;2022-07-17T02:30:08;102102.72;;;10.27;90.18
39265;BME280;42646;51.910;7.724;2022-07-17T02:32:38;102105.56;;;10.24;90.86
39265;BME280;42646;51.910;7.724;2022-07-17T02:35:07;102109.38;;;10.20;91.23
39265;BME280;42646;51.910;7.724;2022-07-17T02:37:36;102111.25;;;10.18;91.32
39265;BME280;42646;51.910;7.724;2022-07-17T02:40:05;102105.19;;;10.16;91.02
39265;BME280;42646;51.910;7.724;2022-07-17T02:42:33;102104.44;;;10.14;91.27
39265;BME280;42646;51.910;7.724;2022-07-17T02:45:01;102099.22;;;10.12;91.39
39265;BME280;42646;51.910;7.724;2022-07-17T02:47:30;102101.22;;;10.09;91.69
39265;BME280;42646;51.910;7.724;2022-07-17T02:50:00;102107.81;;;10.03;91.90
39265;BME280;42646;51.910;7.724;2022-07-17T02:52:28;102107.03;;;10.01;92.14
39265;BME280;42646;51.910;7.724;2022-07-17T02:54:56;102105.44;;;9.99;92.13
39265;BME280;42646;51.910;7.724;2022-07-17T02:57:24;102109.16;;;9.96;91.56
39265;BME280;42646;51.910;7.724;2022-07-17T02:59:51;102106.56;;;9.95;90.82
39265;BME280;42646;51.910;7.724;2022-07-17T03:02:19;102110.19;;;9.94;91.04
39265;BME280;42646;51.910;7.724;2022-07-17T03:04:47;102111.16;;;9.93;91.47
39265;BME280;42646;51.910;7.724;2022-07-17T03:07:16;102116.63;;;9.89;92.06
39265;BME280;42646;51.910;7.724;2022-07-17T03:09:44;102119.41;;;9.88;92.35
39265;BME280;42646;51.910;7.724;2022-07-17T03:12:12;102123.03;;;9.87;92.25
39265;BME280;42646;51.910;7.724;2022-07-17T03:14:39;102123.19;;;9.84;92.38
39265;BME280;42646;51.910;7.724;2022-07-17T03:17:08;102127.66;;;9.83;92.61
39265;BME280;42646;51.910;7.724;2022-07-17T03:19:36;102124.25;;;9.81;92.69
39265;BME280;42646;51.910;7.724;2022-07-17T03:22:03;102118.19;;;9.79;93.01
39265;BME280;42646;51.910;7.724;2022-07-17T03:24:33;102124.53;;;9.77;93.01
39265;BME280;42646;51.910;7.724;2022-07-17T03:27:00;102128.16;;;9.76;93.33
39265;BME280;42646;51.910;7.724;2022-07-17T03:29:28;102128.25;;;9.74;93.13
39265;BME280;42646;51.910;7.724;2022-07-17T03:31:56;102123.91;;;9.73;92.82
39265;BME280;42646;51.910;7.724;2022-07-17T03:34:24;102118.66;;;9.72;92.72
39265;BME280;42646;51.910;7.724;2022-07-17T03:36:52;102116.97;;;9.71;92.84
39265;BME280;42646;51.910;7.724;2022-07-17T03:39:20;102120.78;;;9.67;93.39
39265;BME280;42646;51.910;7.724;2022-07-17T03:41:49;102113.94;;;9.62;94.28
39265;BME280;42646;51.910;7.724;2022-07-17T03:44:16;102114.97;;;9.60;94.51
39265;BME280;42646;51.910;7.724;2022-07-17T03:46:46;102118.59;;;9.59;94.44
39265;BME280;42646;51.910;7.724;2022-07-17T03:49:14;102117.72;;;9.58;94.48
39265;BME280;42646;51.910;7.724;2022-07-17T03:51:42;102126.56;;;9.59;94.02
39265;BME280;42646;51.910;7.724;2022-07-17T03:54:10;102132.72;;;9.59;94.12
39265;BME280;42646;51.910;7.724;2022-07-17T03:56:38;102139.00;;;9.58;94.27
39265;BME280;42646;51.910;7.724;2022-07-17T03:59:07;102145.16;;;9.59;94.59
39265;BME280;42646;51.910;7.724;2022-07-17T04:01:35;102141.66;;;9.58;94.54
39265;BME280;42646;51.910;7.724;2022-07-17T04:04:03;102146.97;;;9.58;94.56
39265;BME280;42646;51.910;7.724;2022-07-17T04:06:31;102145.16;;;9.59;94.62
39265;BME280;42646;51.910;7.724;2022-07-17T04:08:58;102142.59;;;9.57;95.09
39265;BME280;42646;51.910;7.724;2022-07-17T04:11:26;102145.16;;;9.59;95.26
39265;BME280;42646;51.910;7.724;2022-07-17T04:13:54;102134.53;;;9.59;95.70
39265;BME280;42646;51.910;7.724;2022-07-17T04:16:23;102126.56;;;9.59;95.98
39265;BME280;42646;51.910;7.724;2022-07-17T04:18:51;102132.81;;;9.58;96.40
39265;BME280;42646;51.910;7.724;2022-07-17T04:21:19;102129.22;;;9.59;96.73
39265;BME280;42646;51.910;7.724;2022-07-17T04:23:47;102124.84;;;9.58;97.06
39265;BME280;42646;51.910;7.724;2022-07-17T04:26:15;102114.13;;;9.59;97.37
39265;BME280;42646;51.910;7.724;2022-07-17T04:28:42;102116.72;;;9.61;97.79
39265;BME280;42646;51.910;7.724;2022-07-17T04:31:11;102120.97;;;9.63;97.90
39265;BME280;42646;51.910;7.724;2022-07-17T04:33:40;102117.34;;;9.64;97.39
39265;BME280;42646;51.910;7.724;2022-07-17T04:36:07;102112.72;;;9.68;97.16
39265;BME280;42646;51.910;7.724;2022-07-17T04:38:35;102130.25;;;9.71;97.06
39265;BME280;42646;51.910;7.724;2022-07-17T04:41:03;102131.03;;;9.73;96.97
39265;BME280;42646;51.910;7.724;2022-07-17T04:43:31;102137.84;;;9.77;96.60
39265;BME280;42646;51.910;7.724;2022-07-17T04:45:58;102149.78;;;9.84;96.09
39265;BME280;42646;51.910;7.724;2022-07-17T04:48:26;102153.00;;;9.89;95.81
39265;BME280;42646;51.910;7.724;2022-07-17T04:50:55;102153.47;;;9.96;95.58
39265;BME280;42646;51.910;7.724;2022-07-17T04:53:23;102159.34;;;10.01;95.59
39265;BME280;42646;51.910;7.724;2022-07-17T04:55:50;102157.16;;;10.07;95.41
39265;BME280;42646;51.910;7.724;2022-07-17T04:58:18;102161.16;;;10.14;95.88
39265;BME280;42646;51.910;7.724;2022-07-17T05:00:46;102156.19;;;10.23;95.87
39265;BME280;42646;51.910;7.724;2022-07-17T05:03:14;102157.50;;;10.30;95.95
39265;BME280;42646;51.910;7.724;2022-07-17T05:05:42;102159.66;;;10.37;96.18
39265;BME280;42646;51.910;7.724;2022-07-17T05:08:11;102155.56;;;10.46;96.87
39265;BME280;42646;51.910;7.724;2022-07-17T05:10:39;102158.38;;;10.57;97.31
39265;BME280;42646;51.910;7.724;2022-07-17T05:13:06;102157.66;;;10.68;97.60
39265;BME280;42646;51.910;7.724;2022-07-17T05:15:34;102148.09;;;10.78;97.39
39265;BME280;42646;51.910;7.724;2022-07-17T05:18:06;102153.53;;;10.89;97.33
39265;BME280;42646;51.910;7.724;2022-07-17T05:20:35;102154.63;;;11.00;96.97
39265;BME280;42646;51.910;7.724;2022-07-17T05:23:02;102147.94;;;11.07;97.06
39265;BME280;42646;51.910;7.724;2022-07-17T05:25:32;102148.06;;;11.18;96.52
39265;BME280;42646;51.910;7.724;2022-07-17T05:27:59;102147.44;;;11.27;96.54
39265;BME280;42646;51.910;7.724;2022-07-17T05:30:28;102143.25;;;11.36;96.06
39265;BME280;42646;51.910;7.724;2022-07-17T05:32:56;102144.44;;;11.44;95.71
39265;BME280;42646;51.910;7.724;2022-07-17T05:35:24;102139.41;;;11.53;95.12
39265;BME280;42646;51.910;7.724;2022-07-17T05:37:52;102137.91;;;11.61;94.96
39265;BME280;42646;51.910;7.724;2022-07-17T05:40:20;102147.69;;;11.73;94.50
39265;BME280;42646;51.910;7.724;2022-07-17T05:42:49;102145.25;;;11.83;94.24
39265;BME280;42646;51.910;7.724;2022-07-17T05:45:16;102144.38;;;11.95;93.82
39265;BME280;42646;51.910;7.724;2022-07-17T05:47:44;102144.66;;;12.03;93.18
39265;BME280;42646;51.910;7.724;2022-07-17T05:50:12;102144.03;;;12.13;92.86
39265;BME280;42646;51.910;7.724;2022-07-17T05:52:40;102150.38;;;12.23;92.88
39265;BME280;42646;51.910;7.724;2022-07-17T05:55:08;102140.00;;;12.31;92.60
39265;BME280;42646;51.910;7.724;2022-07-17T05:57:36;102137.50;;;12.41;91.90
39265;BME280;42646;51.910;7.724;2022-07-17T06:00:07;102145.44;;;12.53;91.58
39265;BME280;42646;51.910;7.724;2022-07-17T06:02:40;102141.00;;;12.65;91.37
39265;BME280;42646;51.910;7.724;2022-07-17T06:05:08;102137.28;;;12.79;91.16
39265;BME280;42646;51.910;7.724;2022-07-17T06:07:43;102144.38;;;12.91;90.70
39265;BME280;42646;51.910;7.724;2022-07-17T06:10:11;102154.03;;;13.05;90.16
39265;BME280;42646;51.910;7.724;2022-07-17T06:12:39;102161.63;;;13.22;89.78
39265;BME280;42646;51.910;7.724;2022-07-17T06:15:09;102162.13;;;13.39;89.05
39265;BME280;42646;51.910;7.724;2022-07-17T06:17:37;102175.16;;;13.54;88.81
39265;BME280;42646;51.910;7.724;2022-07-17T06:20:09;102166.78;;;13.70;88.36
39265;BME280;42646;51.910;7.724;2022-07-17T06:22:37;102169.19;;;13.84;88.05
39265;BME280;42646;51.910;7.724;2022-07-17T06:25:05;102156.38;;;13.99;87.61
39265;BME280;42646;51.910;7.724;2022-07-17T06:27:33;102157.59;;;14.18;86.64
39265;BME280;42646;51.910;7.724;2022-07-17T06:30:02;102144.63;;;14.34;86.12
39265;BME280;42646;51.910;7.724;2022-07-17T06:32:31;102136.09;;;14.51;85.18
39265;BME280;42646;51.910;7.724;2022-07-17T06:34:59;102131.88;;;14.69;84.44
39265;BME280;42646;51.910;7.724;2022-07-17T06:37:26;102126.78;;;14.87;83.56
39265;BME280;42646;51.910;7.724;2022-07-17T06:39:54;102120.59;;;15.08;82.38
39265;BME280;42646;51.910;7.724;2022-07-17T06:42:21;102132.28;;;15.28;81.30
39265;BME280;42646;51.910;7.724;2022-07-17T06:44:57;102142.38;;;15.45;80.70
39265;BME280;42646;51.910;7.724;2022-07-17T06:47:24;102155.44;;;15.59;79.47
39265;BME280;42646;51.910;7.724;2022-07-17T06:49:54;102157.50;;;15.67;78.59
39265;BME280;42646;51.910;7.724;2022-07-17T06:52:21;102155.25;;;15.72;77.98
39265;BME280;42646;51.910;7.724;2022-07-17T06:54:55;102147.50;;;15.79;77.35
39265;BME280;42646;51.910;7.724;2022-07-17T06:57:23;102140.22;;;15.90;77.20
39265;BME280;42646;51.910;7.724;2022-07-17T06:59:51;102141.22;;;15.99;76.83
39265;BME280;42646;51.910;7.724;2022-07-17T07:02:18;102135.19;;;16.16;76.16
39265;BME280;42646;51.910;7.724;2022-07-17T07:04:46;102134.94;;;16.39;76.15
39265;BME280;42646;51.910;7.724;2022-07-17T07:07:15;102138.47;;;16.59;76.70
39265;BME280;42646;51.910;7.724;2022-07-17T07:09:43;102143.00;;;16.77;73.75
39265;BME280;42646;51.910;7.724;2022-07-17T07:12:10;102139.06;;;16.91;71.83
39265;BME280;42646;51.910;7.724;2022-07-17T07:14:38;102131.66;;;17.13;72.14
39265;BME280;42646;51.910;7.724;2022-07-17T07:17:05;102121.81;;;17.31;71.34
39265;BME280;42646;51.910;7.724;2022-07-17T07:19:33;102120.38;;;17.46;70.25
39265;BME280;42646;51.910;7.724;2022-07-17T07:22:01;102134.59;;;17.66;68.71
39265;BME280;42646;51.910;7.724;2022-07-17T07:24:30;102145.06;;;17.79;67.53
39265;BME280;42646;51.910;7.724;2022-07-17T07:26:58;102126.41;;;17.95;67.18
39265;BME280;42646;51.910;7.724;2022-07-17T07:29:25;102114.97;;;18.11;67.09
39265;BME280;42646;51.910;7.724;2022-07-17T07:31:53;102109.44;;;18.30;64.83
39265;BME280;42646;51.910;7.724;2022-07-17T07:34:21;102111.13;;;18.49;61.96
39265;BME280;42646;51.910;7.724;2022-07-17T07:36:49;102109.28;;;18.50;61.34
39265;BME280;42646;51.910;7.724;2022-07-17T07:39:16;102119.69;;;18.62;62.06
39265;BME280;42646;51.910;7.724;2022-07-17T07:41:45;102122.47;;;18.71;60.50
39265;BME280;42646;51.910;7.724;2022-07-17T07:44:13;102128.16;;;18.67;60.27
39265;BME280;42646;51.910;7.724;2022-07-17T07:46:56;102131.41;;;18.71;61.25
39265;BME280;42646;51.910;7.724;2022-07-17T07:49:24;102132.56;;;18.86;60.49
39265;BME280;42646;51.910;7.724;2022-07-17T07:51:52;102138.22;;;19.01;60.34
39265;BME280;42646;51.910;7.724;2022-07-17T07:54:29;102139.47;;;19.15;60.98
39265;BME280;42646;51.910;7.724;2022-07-17T07:56:59;102159.19;;;19.33;59.48
39265;BME280;42646;51.910;7.724;2022-07-17T07:59:26;102161.97;;;19.49;59.41
39265;BME280;42646;51.910;7.724;2022-07-17T08:01:54;102170.38;;;19.64;59.70
39265;BME280;42646;51.910;7.724;2022-07-17T08:04:22;102165.56;;;19.84;59.40
39265;BME280;42646;51.910;7.724;2022-07-17T08:06:50;102163.59;;;19.94;58.54
39265;BME280;42646;51.910;7.724;2022-07-17T08:09:18;102162.81;;;20.10;56.71
39265;BME280;42646;51.910;7.724;2022-07-17T08:11:45;102167.34;;;20.10;56.59
39265;BME280;42646;51.910;7.724;2022-07-17T08:14:15;102172.25;;;20.14;56.51
39265;BME280;42646;51.910;7.724;2022-07-17T08:16:43;102177.53;;;20.24;55.96
39265;BME280;42646;51.910;7.724;2022-07-17T08:19:11;102171.78;;;20.27;54.42
39265;BME280;42646;51.910;7.724;2022-07-17T08:21:38;102177.19;;;20.19;53.78
39265;BME280;42646;51.910;7.724;2022-07-17T08:24:06;102173.81;;;20.17;54.14
39265;BME280;42646;51.910;7.724;2022-07-17T08:26:34;102169.75;;;20.21;54.27
39265;BME280;42646;51.910;7.724;2022-07-17T08:29:02;102175.69;;;20.33;53.84
39265;BME280;42646;51.910;7.724;2022-07-17T08:31:31;102173.63;;;20.26;53.21
39265;BME280;42646;51.910;7.724;2022-07-17T08:33:59;102181.91;;;20.25;53.92
39265;BME280;42646;51.910;7.724;2022-07-17T08:36:27;102180.06;;;20.25;54.23
39265;BME280;42646;51.910;7.724;2022-07-17T08:38:56;102172.13;;;20.32;53.87
39265;BME280;42646;51.910;7.724;2022-07-17T08:41:24;102179.09;;;20.35;53.20
39265;BME280;42646;51.910;7.724;2022-07-17T08:43:52;102166.56;;;20.34;52.87
39265;BME280;42646;51.910;7.724;2022-07-17T08:46:23;102174.53;;;20.35;51.96
39265;BME280;42646;51.910;7.724;2022-07-17T08:48:57;102163.84;;;20.25;52.37
39265;BME280;42646;51.910;7.724;2022-07-17T08:51:26;102158.44;;;20.25;53.05
39265;BME280;42646;51.910;7.724;2022-07-17T08:53:55;102160.31;;;20.33;53.23
39265;BME280;42646;51.910;7.724;2022-07-17T08:56:24;102163.53;;;20.37;52.01
39265;BME280;42646;51.910;7.724;2022-07-17T08:58:53;102165.22;;;20.38;52.94
39265;BME280;42646;51.910;7.724;2022-07-17T09:01:22;102160.91;;;20.53;52.43
39265;BME280;42646;51.910;7.724;2022-07-17T09:03:58;102161.41;;;20.57;51.70
39265;BME280;42646;51.910;7.724;2022-07-17T09:06:33;102155.66;;;20.60;51.55
39265;BME280;42646;51.910;7.724;2022-07-17T09:09:02;102159.56;;;20.65;51.40
39265;BME280;42646;51.910;7.724;2022-07-17T09:11:41;102151.78;;;20.70;51.21
39265;BME280;42646;51.910;7.724;2022-07-17T09:14:09;102155.69;;;20.84;51.10
39265;BME280;42646;51.910;7.724;2022-07-17T09:16:47;102148.75;;;20.90;48.77
39265;BME280;42646;51.910;7.724;2022-07-17T09:19:26;102147.88;;;20.81;50.24
39265;BME280;42646;51.910;7.724;2022-07-17T09:22:07;102151.28;;;20.91;50.62
39265;BME280;42646;51.910;7.724;2022-07-17T09:24:42;102145.19;;;21.05;50.10
39265;BME280;42646;51.910;7.724;2022-07-17T09:27:12;102142.97;;;21.17;50.87
39265;BME280;42646;51.910;7.724;2022-07-17T09:29:55;102154.47;;;21.36;50.18
39265;BME280;42646;51.910;7.724;2022-07-17T09:32:26;102150.53;;;21.46;50.29
39265;BME280;42646;51.910;7.724;2022-07-17T09:34:58;102152.03;;;21.57;49.58
39265;BME280;42646;51.910;7.724;2022-07-17T09:37:29;102150.47;;;21.71;48.98
39265;BME280;42646;51.910;7.724;2022-07-17T09:39:57;102157.22;;;21.83;46.21
39265;BME280;42646;51.910;7.724;2022-07-17T09:42:27;102156.38;;;21.74;44.92
39265;BME280;42646;51.910;7.724;2022-07-17T09:44:59;102151.31;;;21.71;45.01
39265;BME280;42646;51.910;7.724;2022-07-17T09:47:29;102153.53;;;21.68;46.21
39265;BME280;42646;51.910;7.724;2022-07-17T09:50:00;102155.53;;;21.74;46.16
39265;BME280;42646;51.910;7.724;2022-07-17T09:52:30;102152.44;;;21.85;45.93
39265;BME280;42646;51.910;7.724;2022-07-17T09:54:59;102149.09;;;21.83;45.86
39265;BME280;42646;51.910;7.724;2022-07-17T09:57:48;102142.34;;;22.10;42.46
39265;BME280;42646;51.910;7.724;2022-07-17T10:00:16;102147.34;;;21.90;43.51
39265;BME280;42646;51.910;7.724;2022-07-17T10:02:49;102140.78;;;21.84;44.72
39265;BME280;42646;51.910;7.724;2022-07-17T10:05:18;102137.69;;;21.87;45.47
39265;BME280;42646;51.910;7.724;2022-07-17T10:07:48;102137.28;;;21.99;44.90
39265;BME280;42646;51.910;7.724;2022-07-17T10:10:17;102139.66;;;22.02;43.09
39265;BME280;42646;51.910;7.724;2022-07-17T10:12:47;102147.28;;;22.06;44.73
39265;BME280;42646;51.910;7.724;2022-07-17T10:15:16;102141.84;;;22.06;44.11
39265;BME280;42646;51.910;7.724;2022-07-17T10:17:44;102146.25;;;22.07;43.92
39265;BME280;42646;51.910;7.724;2022-07-17T10:20:12;102148.47;;;22.12;45.35
39265;BME280;42646;51.910;7.724;2022-07-17T10:22:43;102143.31;;;22.17;44.33
39265;BME280;42646;51.910;7.724;2022-07-17T10:25:13;102132.13;;;22.20;45.87
39265;BME280;42646;51.910;7.724;2022-07-17T10:27:48;102146.63;;;22.35;47.69
39265;BME280;42646;51.910;7.724;2022-07-17T10:30:25;102147.34;;;22.52;46.35
39265;BME280;42646;51.910;7.724;2022-07-17T10:32:56;102146.72;;;22.65;46.24
39265;BME280;42646;51.910;7.724;2022-07-17T10:35:25;102148.38;;;22.74;44.44
39265;BME280;42646;51.910;7.724;2022-07-17T10:37:57;102151.19;;;22.81;43.12
39265;BME280;42646;51.910;7.724;2022-07-17T10:40:26;102142.22;;;22.80;43.04
39265;BME280;42646;51.910;7.724;2022-07-17T10:42:56;102139.97;;;22.84;41.65
39265;BME280;42646;51.910;7.724;2022-07-17T10:45:28;102139.00;;;22.77;42.58
39265;BME280;42646;51.910;7.724;2022-07-17T10:48:01;102138.53;;;22.73;42.76
39265;BME280;42646;51.910;7.724;2022-07-17T10:50:30;102129.75;;;22.71;43.41
39265;BME280;42646;51.910;7.724;2022-07-17T10:53:06;102122.03;;;22.83;43.84
39265;BME280;42646;51.910;7.724;2022-07-17T10:55:35;102136.19;;;22.93;43.99
39265;BME280;42646;51.910;7.724;2022-07-17T10:58:07;102129.13;;;23.07;42.85
39265;BME280;42646;51.910;7.724;2022-07-17T11:00:41;102136.22;;;23.08;42.67
39265;BME280;42646;51.910;7.724;2022-07-17T11:03:10;102136.69;;;23.11;42.66
39265;BME280;42646;51.910;7.724;2022-07-17T11:05:38;102136.31;;;23.14;42.92
39265;BME280;42646;51.910;7.724;2022-07-17T11:08:07;102137.91;;;23.24;42.79
39265;BME280;42646;51.910;7.724;2022-07-17T11:10:37;102139.44;;;23.41;40.82
39265;BME280;42646;51.910;7.724;2022-07-17T11:13:10;102138.50;;;23.34;40.80
39265;BME280;42646;51.910;7.724;2022-07-17T11:15:39;102139.88;;;23.30;42.21
39265;BME280;42646;51.910;7.724;2022-07-17T11:18:13;102135.88;;;23.26;40.29
39265;BME280;42646;51.910;7.724;2022-07-17T11:20:52;102131.88;;;23.36;40.46
39265;BME280;42646;51.910;7.724;2022-07-17T11:23:23;102130.16;;;23.35;41.20
39265;BME280;42646;51.910;7.724;2022-07-17T11:25:58;102132.41;;;23.46;40.15
39265;BME280;42646;51.910;7.724;2022-07-17T11:28:34;102137.47;;;23.50;39.86
39265;BME280;42646;51.910;7.724;2022-07-17T11:31:04;102129.22;;;23.58;40.49
39265;BME280;42646;51.910;7.724;2022-07-17T11:33:32;102123.53;;;23.67;40.64
39265;BME280;42646;51.910;7.724;2022-07-17T11:36:00;102130.94;;;23.74;39.96
39265;BME280;42646;51.910;7.724;2022-07-17T11:38:29;102122.22;;;23.78;39.39
39265;BME280;42646;51.910;7.724;2022-07-17T11:40:57;102130.06;;;23.88;39.28
39265;BME280;42646;51.910;7.724;2022-07-17T11:43:28;102122.81;;;23.95;38.98
39265;BME280;42646;51.910;7.724;2022-07-17T11:45:55;102124.59;;;24.03;39.46
39265;BME280;42646;51.910;7.724;2022-07-17T11:48:23;102113.59;;;24.11;39.04
39265;BME280;42646;51.910;7.724;2022-07-17T11:50:53;102127.59;;;24.08;37.87
39265;BME280;42646;51.910;7.724;2022-07-17T11:53:33;102123.66;;;24.10;38.31
39265;BME280;42646;51.910;7.724;2022-07-17T11:56:01;102124.47;;;24.11;38.50
39265;BME280;42646;51.910;7.724;2022-07-17T11:58:40;102119.31;;;24.16;38.47
39265;BME280;42646;51.910;7.724;2022-07-17T12:01:08;102114.34;;;24.19;38.45
39265;BME280;42646;51.910;7.724;2022-07-17T12:03:36;102114.41;;;24.26;38.84
39265;BME280;42646;51.910;7.724;2022-07-17T12:06:04;102108.56;;;24.44;37.67
39265;BME280;42646;51.910;7.724;2022-07-17T12:08:34;102101.81;;;24.40;36.27
39265;BME280;42646;51.910;7.724;2022-07-17T12:11:04;102110.44;;;24.29;38.04
39265;BME280;42646;51.910;7.724;2022-07-17T12:13:42;102102.38;;;24.35;37.63
39265;BME280;42646;51.910;7.724;2022-07-17T12:16:24;102100.66;;;24.49;36.43
39265;BME280;42646;51.910;7.724;2022-07-17T12:19:03;102095.91;;;24.58;35.91
39265;BME280;42646;51.910;7.724;2022-07-17T12:21:32;102084.69;;;24.67;35.83
39265;BME280;42646;51.910;7.724;2022-07-17T12:24:03;102092.25;;;24.72;35.95
39265;BME280;42646;51.910;7.724;2022-07-17T12:26:32;102085.00;;;24.79;37.17
39265;BME280;42646;51.910;7.724;2022-07-17T12:29:00;102083.81;;;24.88;36.95
39265;BME280;42646;51.910;7.724;2022-07-17T12:31:27;102080.78;;;25.04;35.81
39265;BME280;42646;51.910;7.724;2022-07-17T12:33:55;102082.53;;;25.12;35.21
39265;BME280;42646;51.910;7.724;2022-07-17T12:36:23;102081.75;;;25.25;35.18
39265;BME280;42646;51.910;7.724;2022-07-17T12:38:51;102081.38;;;25.28;34.92
39265;BME280;42646;51.910;7.724;2022-07-17T12:41:21;102077.84;;;25.34;35.54
39265;BME280;42646;51.910;7.724;2022-07-17T12:43:49;102075.59;;;25.44;35.25
39265;BME280;42646;51.910;7.724;2022-07-17T12:46:17;102076.25;;;25.53;35.72
39265;BME280;42646;51.910;7.724;2022-07-17T12:48:45;102076.94;;;25.62;34.92
39265;BME280;42646;51.910;7.724;2022-07-17T12:51:13;102076.97;;;25.68;35.03
39265;BME280;42646;51.910;7.724;2022-07-17T12:53:41;102075.38;;;25.80;35.67
39265;BME280;42646;51.910;7.724;2022-07-17T12:56:10;102056.94;;;25.96;34.90
39265;BME280;42646;51.910;7.724;2022-07-17T12:58:39;102061.38;;;26.03;35.60
39265;BME280;42646;51.910;7.724;2022-07-17T13:01:07;102064.97;;;26.17;33.88
39265;BME280;42646;51.910;7.724;2022-07-17T13:03:36;102061.63;;;26.22;33.31